PHNL METAR and TAF | Updated Today

PHNL METAR

Daniel K Inouye International Airport

Observation time: 19 min. ago

PHNL 010853Z 07010KT 10SM FEW025 27/21 A2999 RMK AO2 SLP156 T02670206 50004

Need help? Read our tutorial on how to read METARs or read the parsed version below.

Daniel K Inouye International Airport (PHNL) METAR

  • Weather conditions on Sat, 01 Oct 2022 08:53:00 +0000 (19 min. ago):
  • Present conditions: Dry
  • Clouds: A few at 762 meters
  • Visibility: 16093 meters
  • Wind: 70 degrees at 10 knots
  • Temperature: 27 celsius
  • Dew point: 21 celsius
  • Pressure: 29.99 inHg
  • Remarks: AO2 SLP156 T02670206 50004


Useful to know...

PHNL TAF

Daniel K Inouye International Airport

PHNL 010853Z 0109/0212 06007KT P6SM FEW025 FM012100 08009KT P6SM SCT025 SCT045 FM020300 04010KT P6SM SCT025 SCT045
Observation time: 19 min. ago
Need help? Read our tutorial on how to read TAFs or read the parsed version below.

Parsed version of TAF for Daniel K Inouye International Airport (PHNL)

  • From 01 October at 09:00 UTC, to day 02 of the month at 12:00 UTC
  • Clouds: A few at 762 meters
  • Wind: 60 degrees at 7
  • From day 1 of the month at 21:00 UTC
  • Clouds: Scattered at 762 meters; scattered at 1372 meters
  • Wind: 80 degrees at 9
  • From day 2 of the month at 03:00 UTC
  • Clouds: Scattered at 762 meters; scattered at 1372 meters
  • Wind: 40 degrees at 10